Time;durP1;ratioP1;P1;durP2;ratioP2;P2;SDS_P1;SDS_P2;PMS_P1;PMS_P2;Temp;Humidity;BMP_temperature;BMP_pressure;BME280_temperature;BME280_humidity;BME280_pressure;Samples;Min_cycle;Max_cycle;Signal;HPM_P1;HPM_P2
2023/02/12 00:00:43;;;;;;;;;;;9.50;99.90;;;;;;5036443;28;20004;-80
2023/02/12 00:03:09;;;;;;;;;;;9.50;99.90;;;;;;5016705;28;19915;-80
2023/02/12 00:05:41;;;;;;;;;;;9.50;99.90;;;;;;5042968;28;19913;-80
2023/02/12 00:08:10;;;;;;;;;;;9.50;99.90;;;;;;5034890;28;19912;-79
2023/02/12 00:10:39;;;;;;;;;;;9.50;99.90;;;;;;5016873;28;19909;-80
2023/02/12 00:13:15;;;;;;;;;;;9.40;99.90;;;;;;5024192;28;19990;-79
2023/02/12 00:15:41;;;;;;;;;;;9.50;99.90;;;;;;5013623;28;20607;-79
2023/02/12 00:18:07;;;;;;;;;;;9.50;99.90;;;;;;5014956;28;19913;-79
2023/02/12 00:20:32;;;;;;;;;;;9.40;99.90;;;;;;5013537;28;19909;-79
2023/02/12 00:22:58;;;;;;;;;;;9.40;99.90;;;;;;5014772;28;19917;-80
2023/02/12 00:25:23;;;;;;;;;;;9.40;99.90;;;;;;5014516;28;19959;-80
2023/02/12 00:27:49;;;;;;;;;;;9.40;99.90;;;;;;5041990;28;20341;-80
2023/02/12 00:30:20;;;;;;;;;;;9.40;99.90;;;;;;5031761;28;19931;-79
2023/02/12 00:32:46;;;;;;;;;;;9.40;99.90;;;;;;5041998;28;19909;-80
2023/02/12 00:35:11;;;;;;;;;;;9.40;99.90;;;;;;5016094;28;20378;-80
2023/02/12 00:37:37;;;;;;;;;;;9.40;99.90;;;;;;5016083;28;19916;-80
2023/02/12 00:40:13;;;;;;;;;;;9.30;99.90;;;;;;5034030;28;20370;-79
2023/02/12 00:42:39;;;;;;;;;;;9.40;99.90;;;;;;5016040;28;20293;-79
2023/02/12 00:45:04;;;;;;;;;;;9.40;99.90;;;;;;5033312;28;20011;-80
2023/02/12 00:47:30;;;;;;;;;;;9.30;99.90;;;;;;5034038;28;19939;-79
2023/02/12 00:49:55;;;;;;;;;;;9.30;99.90;;;;;;5033789;28;20282;-79
2023/02/12 00:52:21;;;;;;;;;;;9.30;99.90;;;;;;5015709;28;19909;-79
2023/02/12 00:54:50;;;;;;;;;;;9.30;99.90;;;;;;5033559;28;19948;-79
2023/02/12 00:57:15;;;;;;;;;;;9.30;99.90;;;;;;5033798;28;19909;-79
2023/02/12 00:59:44;;;;;;;;;;;9.40;99.90;;;;;;5015999;28;20341;-79
2023/02/12 01:02:17;;;;;;;;;;;9.30;99.90;;;;;;5014673;28;19959;-79
2023/02/12 01:04:43;;;;;;;;;;;9.30;99.90;;;;;;5015571;28;20003;-79
2023/02/12 01:07:08;;;;;;;;;;;9.30;99.90;;;;;;5033663;28;20004;-79
2023/02/12 01:09:37;;;;;;;;;;;9.30;99.90;;;;;;5015699;28;19910;-79
2023/02/12 01:12:03;;;;;;;;;;;9.20;99.90;;;;;;5015364;28;19937;-79
2023/02/12 01:14:29;;;;;;;;;;;9.20;99.90;;;;;;5033050;28;20359;-79
2023/02/12 01:16:54;;;;;;;;;;;9.20;99.90;;;;;;5015636;28;20385;-79
2023/02/12 01:19:22;;;;;;;;;;;9.20;99.90;;;;;;5033484;28;19968;-79
2023/02/12 01:21:48;;;;;;;;;;;9.20;99.90;;;;;;5033133;28;19910;-80
2023/02/12 01:24:14;;;;;;;;;;;9.20;99.90;;;;;;5031842;28;20007;-79
2023/02/12 01:26:42;;;;;;;;;;;9.10;99.90;;;;;;5032922;28;19998;-80
2023/02/12 01:29:09;;;;;;;;;;;9.20;99.90;;;;;;5015214;28;20293;-79
2023/02/12 01:31:37;;;;;;;;;;;9.20;99.90;;;;;;5015374;28;19917;-79
2023/02/12 01:34:05;;;;;;;;;;;9.20;99.90;;;;;;5015272;28;20434;-79
2023/02/12 01:36:31;;;;;;;;;;;9.20;99.90;;;;;;5015322;28;19952;-79
2023/02/12 01:39:01;;;;;;;;;;;9.20;99.90;;;;;;5033098;28;20379;-79
2023/02/12 01:41:45;;;;;;;;;;;9.20;99.90;;;;;;5015302;28;20004;-79
2023/02/12 01:44:10;;;;;;;;;;;9.10;99.90;;;;;;5032712;28;20362;-80
2023/02/12 01:46:38;;;;;;;;;;;9.10;99.90;;;;;;5031532;28;20016;-79
2023/02/12 01:49:08;;;;;;;;;;;9.20;99.90;;;;;;5032790;28;20347;-79
2023/02/12 01:51:39;;;;;;;;;;;9.20;99.90;;;;;;5014903;28;20300;-79
2023/02/12 01:54:09;;;;;;;;;;;9.20;99.90;;;;;;5014958;28;19909;-79
2023/02/12 01:56:35;;;;;;;;;;;9.20;99.90;;;;;;5032771;28;19948;-79
2023/02/12 01:59:00;;;;;;;;;;;9.20;99.90;;;;;;5015149;28;19961;-80
2023/02/12 02:01:31;;;;;;;;;;;9.20;99.90;;;;;;5032598;28;19909;-79
2023/02/12 02:03:59;;;;;;;;;;;9.20;99.90;;;;;;5014871;28;19931;-79
2023/02/12 02:06:26;;;;;;;;;;;9.20;99.90;;;;;;5015034;28;19917;-80
2023/02/12 02:08:53;;;;;;;;;;;9.20;99.90;;;;;;5033740;28;19909;-81
2023/02/12 02:16:56;;;;;;;;;;;9.30;99.90;;;;;;5041586;28;20004;-80
2023/02/12 02:19:21;;;;;;;;;;;9.30;99.90;;;;;;5022917;28;19909;-80
2023/02/12 02:22:01;;;;;;;;;;;9.30;99.90;;;;;;5041314;28;20371;-80
2023/02/12 02:24:44;;;;;;;;;;;9.30;99.90;;;;;;5022019;28;19916;-80
2023/02/12 02:27:28;;;;;;;;;;;9.20;99.90;;;;;;5039593;28;19917;-80
2023/02/12 02:30:06;;;;;;;;;;;9.20;99.90;;;;;;5022612;28;19910;-80
2023/02/12 02:32:38;;;;;;;;;;;9.20;99.90;;;;;;5021891;28;19916;-80
2023/02/12 02:35:12;;;;;;;;;;;9.20;99.90;;;;;;5022582;28;20286;-80
2023/02/12 02:37:48;;;;;;;;;;;9.20;99.90;;;;;;5022126;28;19909;-80
2023/02/12 02:40:18;;;;;;;;;;;9.20;99.90;;;;;;5038798;28;19992;-80
2023/02/12 02:42:59;;;;;;;;;;;9.20;99.90;;;;;;5022208;28;20014;-81
2023/02/12 02:45:38;;;;;;;;;;;9.20;99.90;;;;;;5039287;28;19913;-80
2023/02/12 02:48:11;;;;;;;;;;;9.30;99.90;;;;;;5022661;28;20493;-80
2023/02/12 02:50:39;;;;;;;;;;;9.30;99.90;;;;;;5022033;28;20386;-80
2023/02/12 02:53:07;;;;;;;;;;;9.30;99.90;;;;;;5021647;28;20314;-80
2023/02/12 02:55:45;;;;;;;;;;;9.30;99.90;;;;;;5021627;28;20302;-80
2023/02/12 02:58:17;;;;;;;;;;;9.30;99.90;;;;;;5021263;28;19948;-80
2023/02/12 03:00:46;;;;;;;;;;;9.30;99.90;;;;;;5021197;28;19909;-80
2023/02/12 03:03:17;;;;;;;;;;;9.30;99.90;;;;;;5038516;28;20374;-80
2023/02/12 03:05:48;;;;;;;;;;;9.30;99.90;;;;;;5037756;28;20412;-80
2023/02/12 03:08:19;;;;;;;;;;;9.30;99.90;;;;;;5020951;28;19910;-80
2023/02/12 03:10:50;;;;;;;;;;;9.30;99.90;;;;;;5021267;28;20404;-80
2023/02/12 03:13:20;;;;;;;;;;;9.30;99.90;;;;;;5038280;28;19909;-80
2023/02/12 03:16:04;;;;;;;;;;;9.30;99.90;;;;;;5038516;28;19913;-80
2023/02/12 03:18:40;;;;;;;;;;;9.30;99.90;;;;;;5020411;28;19931;-80
2023/02/12 03:21:11;;;;;;;;;;;9.30;99.90;;;;;;5019872;28;19909;-80
2023/02/12 03:23:45;;;;;;;;;;;9.30;99.90;;;;;;5037340;28;20436;-80
2023/02/12 03:26:14;;;;;;;;;;;9.30;99.90;;;;;;5020683;28;19917;-80
2023/02/12 03:28:39;;;;;;;;;;;9.30;99.90;;;;;;5038736;28;19909;-80
2023/02/12 03:31:07;;;;;;;;;;;9.30;99.90;;;;;;5020420;28;19916;-80
2023/02/12 03:33:42;;;;;;;;;;;9.30;99.90;;;;;;5037053;28;19916;-80
2023/02/12 03:36:23;;;;;;;;;;;9.30;99.90;;;;;;5036824;28;19909;-80
2023/02/12 03:38:56;;;;;;;;;;;9.30;99.90;;;;;;5020020;28;19917;-80
2023/02/12 03:41:31;;;;;;;;;;;9.30;99.90;;;;;;5019641;28;19909;-80
2023/02/12 03:43:59;;;;;;;;;;;9.30;99.90;;;;;;5019576;28;20000;-80
2023/02/12 03:46:24;;;;;;;;;;;9.30;99.90;;;;;;5035513;28;19980;-80
2023/02/12 03:49:08;;;;;;;;;;;9.30;99.90;;;;;;5037930;28;19937;-80
2023/02/12 03:51:38;;;;;;;;;;;9.30;99.90;;;;;;5019444;28;19988;-80
2023/02/12 03:54:04;;;;;;;;;;;9.20;99.90;;;;;;5019710;28;19909;-80
2023/02/12 03:56:33;;;;;;;;;;;9.20;99.90;;;;;;5019560;28;19959;-80
2023/02/12 03:59:01;;;;;;;;;;;9.20;99.90;;;;;;5037265;28;19958;-80
2023/02/12 04:01:32;;;;;;;;;;;9.30;99.90;;;;;;5036878;28;19979;-80
2023/02/12 04:04:02;;;;;;;;;;;9.20;99.90;;;;;;5019259;28;19910;-80
2023/02/12 04:06:28;;;;;;;;;;;9.20;99.90;;;;;;5019325;28;19955;-80
2023/02/12 04:08:56;;;;;;;;;;;9.20;99.90;;;;;;5019167;28;19978;-80
2023/02/12 04:11:39;;;;;;;;;;;9.20;99.90;;;;;;5036838;28;19916;-80
2023/02/12 04:14:11;;;;;;;;;;;9.20;99.90;;;;;;5035193;28;19917;-80
2023/02/12 04:16:57;;;;;;;;;;;9.20;99.90;;;;;;5036648;28;19909;-79
2023/02/12 04:19:30;;;;;;;;;;;9.20;99.90;;;;;;5035748;28;19940;-80
2023/02/12 04:22:15;;;;;;;;;;;9.20;99.90;;;;;;5018208;28;20301;-79
2023/02/12 04:24:53;;;;;;;;;;;9.30;99.90;;;;;;5001394;28;20072;-80
2023/02/12 04:27:24;;;;;;;;;;;9.20;99.90;;;;;;5036333;28;19920;-80
2023/02/12 04:30:04;;;;;;;;;;;9.20;99.90;;;;;;5018385;28;19919;-80
2023/02/12 04:32:36;;;;;;;;;;;9.20;99.90;;;;;;5035657;28;19913;-80
2023/02/12 04:35:11;;;;;;;;;;;9.20;99.90;;;;;;5034430;28;19910;-80
2023/02/12 04:37:41;;;;;;;;;;;9.20;99.90;;;;;;5018494;28;19916;-80
2023/02/12 04:40:10;;;;;;;;;;;9.20;99.90;;;;;;5036236;28;19913;-80
2023/02/12 04:42:49;;;;;;;;;;;9.20;99.90;;;;;;5018080;28;19933;-80
2023/02/12 04:45:22;;;;;;;;;;;9.20;99.90;;;;;;5018399;28;19913;-80
2023/02/12 04:47:47;;;;;;;;;;;9.20;99.90;;;;;;5017747;28;19957;-80
2023/02/12 04:50:13;;;;;;;;;;;9.20;99.90;;;;;;5035877;28;19910;-80
2023/02/12 04:52:38;;;;;;;;;;;9.10;99.90;;;;;;5035426;28;20302;-80
2023/02/12 04:55:04;;;;;;;;;;;9.10;99.90;;;;;;5017728;28;19931;-80
2023/02/12 04:57:30;;;;;;;;;;;9.10;99.90;;;;;;5017774;28;20012;-80
2023/02/12 04:59:55;;;;;;;;;;;9.10;99.90;;;;;;5035561;28;20283;-80
2023/02/12 05:02:49;;;;;;;;;;;9.10;99.90;;;;;;5035800;28;20008;-82
2023/02/12 05:05:20;;;;;;;;;;;9.10;99.90;;;;;;5035863;28;20354;-81
2023/02/12 05:07:56;;;;;;;;;;;9.10;99.90;;;;;;5017830;28;20046;-81
2023/02/12 05:10:25;;;;;;;;;;;9.10;99.90;;;;;;5035903;28;19910;-82
2023/02/12 05:13:06;;;;;;;;;;;9.10;99.90;;;;;;5035454;28;19913;-80
2023/02/12 05:15:31;;;;;;;;;;;9.10;99.90;;;;;;5088912;22;19924;-84
2023/02/12 05:17:57;;;;;;;;;;;9.10;99.90;;;;;;5070747;28;19919;-85
2023/02/12 05:20:22;;;;;;;;;;;9.10;99.90;;;;;;5088773;28;19908;-84
2023/02/12 05:22:50;;;;;;;;;;;9.10;99.90;;;;;;5070656;28;19909;-85
2023/02/12 05:25:15;;;;;;;;;;;9.10;99.90;;;;;;5069832;28;19918;-86
2023/02/12 05:27:41;;;;;;;;;;;9.10;99.90;;;;;;5067333;28;20003;-85
2023/02/12 05:30:08;;;;;;;;;;;9.10;99.90;;;;;;5087866;28;20308;-85
2023/02/12 05:32:34;;;;;;;;;;;9.10;99.90;;;;;;5069883;28;19951;-84
2023/02/12 05:34:59;;;;;;;;;;;9.10;99.90;;;;;;5070033;28;19909;-84
2023/02/12 05:37:25;;;;;;;;;;;9.10;99.90;;;;;;5087723;28;19908;-85
2023/02/12 05:39:50;;;;;;;;;;;9.10;99.90;;;;;;5087811;28;19908;-84
2023/02/12 05:42:16;;;;;;;;;;;9.10;99.90;;;;;;5069972;28;19918;-84
2023/02/12 05:44:41;;;;;;;;;;;9.10;99.90;;;;;;5069492;28;19908;-85
2023/02/12 05:47:10;;;;;;;;;;;9.00;99.90;;;;;;5070933;28;19912;-86
2023/02/12 05:49:35;;;;;;;;;;;9.00;99.90;;;;;;5074776;28;19971;-84
2023/02/12 05:52:01;;;;;;;;;;;9.00;99.90;;;;;;5073978;28;19909;-85
2023/02/12 05:54:26;;;;;;;;;;;8.90;99.90;;;;;;5074529;28;19909;-84
2023/02/12 05:56:51;;;;;;;;;;;8.90;99.90;;;;;;5074089;28;19915;-85
2023/02/12 05:59:18;;;;;;;;;;;8.80;99.90;;;;;;5091407;28;19908;-85
2023/02/12 06:01:45;;;;;;;;;;;8.80;99.90;;;;;;5091909;28;19958;-85
2023/02/12 06:04:22;;;;;;;;;;;8.80;99.90;;;;;;5074449;28;19955;-84
2023/02/12 06:06:48;;;;;;;;;;;8.90;99.90;;;;;;5091216;28;19930;-85
2023/02/12 06:09:13;;;;;;;;;;;8.90;99.90;;;;;;5065814;28;19912;-86
2023/02/12 06:11:39;;;;;;;;;;;8.90;99.90;;;;;;5091034;28;19975;-84
2023/02/12 06:14:05;;;;;;;;;;;8.90;99.90;;;;;;5090906;28;19912;-84
2023/02/12 06:16:31;;;;;;;;;;;8.90;99.90;;;;;;5074451;28;19981;-84
2023/02/12 06:18:57;;;;;;;;;;;8.90;99.90;;;;;;5073625;28;19920;-85
2023/02/12 06:21:23;;;;;;;;;;;8.90;99.90;;;;;;5065488;28;19908;-84
2023/02/12 06:23:49;;;;;;;;;;;8.90;99.90;;;;;;5073688;28;19913;-86
2023/02/12 06:26:15;;;;;;;;;;;8.90;99.90;;;;;;5073764;28;19913;-84
2023/02/12 06:28:40;;;;;;;;;;;8.80;99.90;;;;;;5063327;28;19912;-85
2023/02/12 06:31:16;;;;;;;;;;;8.80;99.90;;;;;;5091121;28;19916;-84
2023/02/12 06:33:41;;;;;;;;;;;8.80;99.90;;;;;;5091149;28;19908;-85
2023/02/12 06:36:07;;;;;;;;;;;8.90;99.90;;;;;;5074081;28;19915;-84
2023/02/12 06:38:33;;;;;;;;;;;8.90;99.90;;;;;;5091900;28;19908;-84
2023/02/12 06:41:00;;;;;;;;;;;8.80;99.90;;;;;;5074125;28;19975;-84
2023/02/12 06:43:25;;;;;;;;;;;8.80;99.90;;;;;;5073910;28;19908;-85
2023/02/12 06:45:51;;;;;;;;;;;8.80;99.90;;;;;;5073339;28;19999;-84
2023/02/12 06:48:16;;;;;;;;;;;8.80;99.90;;;;;;5090514;28;19908;-84
2023/02/12 06:50:42;;;;;;;;;;;8.80;99.90;;;;;;5073956;28;19909;-84
2023/02/12 06:53:07;;;;;;;;;;;8.80;99.90;;;;;;5073842;28;19936;-84
2023/02/12 06:55:33;;;;;;;;;;;8.90;99.90;;;;;;5073962;28;19908;-85
2023/02/12 06:58:01;;;;;;;;;;;8.90;99.90;;;;;;5072702;28;20370;-84
2023/02/12 07:00:26;;;;;;;;;;;8.90;99.90;;;;;;5072725;28;20258;-85
2023/02/12 07:02:53;;;;;;;;;;;8.90;99.90;;;;;;5073645;28;19920;-84
2023/02/12 07:05:19;;;;;;;;;;;9.00;99.90;;;;;;5073399;28;19920;-85
2023/02/12 07:07:44;;;;;;;;;;;9.00;99.90;;;;;;5073315;28;20014;-85
2023/02/12 07:10:10;;;;;;;;;;;9.00;99.90;;;;;;5072837;28;19908;-85
2023/02/12 07:12:35;;;;;;;;;;;9.00;99.90;;;;;;5070315;28;19944;-85
2023/02/12 07:15:01;;;;;;;;;;;9.00;99.90;;;;;;5071808;28;19917;-84
2023/02/12 07:17:28;;;;;;;;;;;9.00;99.90;;;;;;5070461;28;19951;-85
2023/02/12 07:19:53;;;;;;;;;;;9.10;99.90;;;;;;5086199;28;19984;-84
2023/02/12 07:22:21;;;;;;;;;;;9.00;99.90;;;;;;5067352;28;19908;-85
2023/02/12 07:24:46;;;;;;;;;;;9.10;99.90;;;;;;5086159;28;19936;-84
2023/02/12 07:27:12;;;;;;;;;;;9.10;99.90;;;;;;5086805;28;19919;-85
2023/02/12 07:29:38;;;;;;;;;;;9.10;99.90;;;;;;5069693;28;19919;-85
2023/02/12 07:32:03;;;;;;;;;;;9.10;99.90;;;;;;5068309;28;19913;-85
2023/02/12 07:34:29;;;;;;;;;;;9.10;99.90;;;;;;5068475;28;19915;-85
2023/02/12 07:36:54;;;;;;;;;;;9.10;99.90;;;;;;5068761;28;19912;-84
2023/02/12 07:39:20;;;;;;;;;;;9.10;99.90;;;;;;5068432;28;19943;-85
2023/02/12 07:41:45;;;;;;;;;;;9.20;99.90;;;;;;5085404;28;19908;-84
2023/02/12 07:44:14;;;;;;;;;;;9.10;99.90;;;;;;5085769;28;19908;-84
2023/02/12 07:46:43;;;;;;;;;;;9.20;99.90;;;;;;5068798;28;19913;-84
2023/02/12 07:49:11;;;;;;;;;;;9.30;99.90;;;;;;5068537;28;19915;-85
2023/02/12 07:51:37;;;;;;;;;;;9.30;99.90;;;;;;5069047;28;19908;-84
2023/02/12 07:54:03;;;;;;;;;;;9.40;99.90;;;;;;5068103;28;19951;-84
2023/02/12 07:56:31;;;;;;;;;;;9.50;99.90;;;;;;5068361;28;19909;-84
2023/02/12 07:59:02;;;;;;;;;;;9.50;99.90;;;;;;5068665;28;19909;-84
2023/02/12 08:01:34;;;;;;;;;;;9.50;99.90;;;;;;5085985;28;19909;-85
2023/02/12 08:04:01;;;;;;;;;;;9.60;99.90;;;;;;5068478;28;19935;-84
2023/02/12 08:06:28;;;;;;;;;;;9.60;99.90;;;;;;5068145;28;19912;-84
2023/02/12 08:08:54;;;;;;;;;;;9.70;99.90;;;;;;5068150;28;19913;-84
2023/02/12 08:11:20;;;;;;;;;;;9.80;99.90;;;;;;5067534;28;19914;-85
2023/02/12 08:13:46;;;;;;;;;;;9.80;99.90;;;;;;5061924;28;19908;-83
2023/02/12 08:16:15;;;;;;;;;;;9.90;99.90;;;;;;5074141;28;19917;-83
2023/02/12 08:18:41;;;;;;;;;;;10.00;99.90;;;;;;5056124;28;20323;-83
2023/02/12 08:21:08;;;;;;;;;;;10.00;99.90;;;;;;5055985;28;19914;-83
2023/02/12 08:23:34;;;;;;;;;;;10.10;99.90;;;;;;5074269;28;20431;-84
2023/02/12 08:26:19;;;;;;;;;;;10.20;99.90;;;;;;5055926;28;19920;-83
2023/02/12 08:28:46;;;;;;;;;;;10.20;99.90;;;;;;5072430;28;19908;-83
2023/02/12 08:31:13;;;;;;;;;;;10.30;99.90;;;;;;5055530;28;19915;-83
2023/02/12 08:33:39;;;;;;;;;;;10.40;99.90;;;;;;5055801;28;20336;-84
2023/02/12 08:36:06;;;;;;;;;;;10.50;99.90;;;;;;5073537;28;19912;-83
2023/02/12 08:38:32;;;;;;;;;;;10.50;99.90;;;;;;5056066;28;20018;-83
2023/02/12 08:41:05;;;;;;;;;;;10.60;99.90;;;;;;5055359;28;19912;-83
2023/02/12 08:43:31;;;;;;;;;;;10.70;99.90;;;;;;5055371;28;19909;-84
2023/02/12 08:46:02;;;;;;;;;;;10.70;99.90;;;;;;5055497;28;19951;-84
2023/02/12 08:48:28;;;;;;;;;;;10.80;99.90;;;;;;5055963;28;19947;-84
2023/02/12 08:50:53;;;;;;;;;;;10.90;99.90;;;;;;5072268;28;19963;-84
2023/02/12 08:53:19;;;;;;;;;;;11.10;99.90;;;;;;5055338;28;19909;-84
2023/02/12 08:55:48;;;;;;;;;;;11.10;99.90;;;;;;5055341;28;20293;-84
2023/02/12 08:58:14;;;;;;;;;;;11.20;99.90;;;;;;5073166;28;20300;-85
2023/02/12 09:00:39;;;;;;;;;;;11.20;99.90;;;;;;5071804;28;19916;-83
2023/02/12 09:03:04;;;;;;;;;;;11.30;99.90;;;;;;5054765;28;19909;-84
2023/02/12 09:05:30;;;;;;;;;;;11.40;99.90;;;;;;5054869;28;19912;-84
2023/02/12 09:07:55;;;;;;;;;;;11.50;99.90;;;;;;5081455;28;19909;-83
2023/02/12 09:10:21;;;;;;;;;;;11.50;99.90;;;;;;5054821;28;19912;-83
2023/02/12 09:12:47;;;;;;;;;;;11.60;99.90;;;;;;5071276;28;20386;-83
2023/02/12 09:15:12;;;;;;;;;;;11.60;99.90;;;;;;5054601;28;19923;-83
2023/02/12 09:17:40;;;;;;;;;;;11.70;99.90;;;;;;5054970;28;20311;-83
2023/02/12 09:20:05;;;;;;;;;;;11.70;99.90;;;;;;5054894;28;20204;-84
2023/02/12 09:22:31;;;;;;;;;;;11.70;99.90;;;;;;5077154;28;19908;-85
2023/02/12 09:24:56;;;;;;;;;;;11.80;99.90;;;;;;5075727;28;19955;-83
2023/02/12 09:27:22;;;;;;;;;;;11.80;99.90;;;;;;5054535;28;19915;-83
2023/02/12 09:29:47;;;;;;;;;;;11.90;99.90;;;;;;5054742;28;19909;-83
2023/02/12 09:32:13;;;;;;;;;;;12.00;99.90;;;;;;5052855;28;19950;-84
2023/02/12 09:34:38;;;;;;;;;;;12.10;99.90;;;;;;5051297;28;19962;-83
2023/02/12 09:37:04;;;;;;;;;;;12.20;99.90;;;;;;5052516;28;20267;-83
2023/02/12 09:39:29;;;;;;;;;;;12.20;99.90;;;;;;5051795;28;19958;-83
2023/02/12 09:42:14;;;;;;;;;;;12.30;99.90;;;;;;5052687;28;19909;-84
2023/02/12 09:44:42;;;;;;;;;;;12.40;99.90;;;;;;5055314;28;19909;-84
2023/02/12 09:47:14;;;;;;;;;;;12.40;99.90;;;;;;5053422;28;20010;-83
2023/02/12 09:49:46;;;;;;;;;;;12.50;99.90;;;;;;5074397;28;20377;-84
2023/02/12 09:52:19;;;;;;;;;;;12.40;99.90;;;;;;5055288;28;19962;-83
2023/02/12 09:54:45;;;;;;;;;;;12.50;99.90;;;;;;5072251;28;19909;-83
2023/02/12 09:57:17;;;;;;;;;;;12.50;99.90;;;;;;5055269;28;19916;-82
2023/02/12 09:59:44;;;;;;;;;;;12.60;99.90;;;;;;5054215;28;19916;-83
2023/02/12 10:02:14;;;;;;;;;;;12.60;99.90;;;;;;5072425;28;19923;-83
2023/02/12 10:04:40;;;;;;;;;;;12.70;99.90;;;;;;5054168;28;19958;-81
2023/02/12 10:07:12;;;;;;;;;;;12.80;99.90;;;;;;5072339;28;19912;-82
2023/02/12 10:09:56;;;;;;;;;;;12.90;99.90;;;;;;5054210;28;19958;-82
2023/02/12 10:12:40;;;;;;;;;;;13.00;99.90;;;;;;5053808;28;19995;-82
2023/02/12 10:15:09;;;;;;;;;;;13.00;99.90;;;;;;5054013;28;19917;-82
2023/02/12 10:17:44;;;;;;;;;;;13.10;99.90;;;;;;5071944;28;19909;-82
2023/02/12 10:20:15;;;;;;;;;;;13.10;99.90;;;;;;5048098;28;20004;-82
2023/02/12 10:22:53;;;;;;;;;;;13.20;99.90;;;;;;5050638;28;19959;-83
2023/02/12 10:25:18;;;;;;;;;;;13.40;99.90;;;;;;5034089;28;19920;-83
2023/02/12 10:27:51;;;;;;;;;;;13.40;99.90;;;;;;5063031;28;19909;-83
2023/02/12 10:30:26;;;;;;;;;;;13.50;99.90;;;;;;5070435;28;19908;-84
2023/02/12 10:32:57;;;;;;;;;;;13.70;99.90;;;;;;5065296;28;19896;-83
2023/02/12 10:35:23;;;;;;;;;;;13.90;99.90;;;;;;5068989;28;19916;-85
2023/02/12 10:37:54;;;;;;;;;;;14.00;99.90;;;;;;5075480;28;19916;-85
2023/02/12 10:40:28;;;;;;;;;;;14.10;99.90;;;;;;5077349;28;19909;-85
2023/02/12 10:42:56;;;;;;;;;;;14.20;99.90;;;;;;5060071;28;19909;-85
2023/02/12 10:45:41;;;;;;;;;;;14.30;99.90;;;;;;5057528;28;20007;-85
2023/02/12 10:48:08;;;;;;;;;;;14.30;99.90;;;;;;5075226;28;19971;-85
2023/02/12 10:50:49;;;;;;;;;;;14.40;99.90;;;;;;5075356;28;19908;-84
2023/02/12 10:53:22;;;;;;;;;;;14.50;99.90;;;;;;5057994;28;19908;-84
2023/02/12 10:55:48;;;;;;;;;;;14.60;99.90;;;;;;5057954;28;19935;-85
2023/02/12 10:58:39;;;;;;;;;;;14.60;99.90;;;;;;5070509;28;19912;-86
2023/02/12 11:01:06;;;;;;;;;;;14.60;99.90;;;;;;5048598;28;19912;-86
2023/02/12 11:03:37;;;;;;;;;;;14.70;99.90;;;;;;5053895;28;19908;-86
2023/02/12 11:06:13;;;;;;;;;;;14.70;99.90;;;;;;5057516;28;19917;-86
2023/02/12 11:08:39;;;;;;;;;;;14.80;99.90;;;;;;5074588;28;20389;-85
2023/02/12 11:11:12;;;;;;;;;;;14.90;99.90;;;;;;5056737;28;20313;-85
2023/02/12 11:13:44;;;;;;;;;;;14.80;99.90;;;;;;5057108;28;19908;-84
2023/02/12 11:16:10;;;;;;;;;;;14.90;99.90;;;;;;5063233;22;19932;-81
2023/02/12 11:18:36;;;;;;;;;;;14.90;99.90;;;;;;5055056;28;20285;-82
2023/02/12 11:21:04;;;;;;;;;;;14.70;99.90;;;;;;5046917;28;19908;-82
2023/02/12 11:23:31;;;;;;;;;;;14.70;99.90;;;;;;5055641;28;19908;-81
2023/02/12 11:25:58;;;;;;;;;;;14.80;99.90;;;;;;5037535;28;20332;-82
2023/02/12 11:28:24;;;;;;;;;;;14.80;99.90;;;;;;5056058;28;20444;-82
2023/02/12 11:31:00;;;;;;;;;;;14.80;99.90;;;;;;5055470;28;19913;-81
2023/02/12 11:33:27;;;;;;;;;;;14.80;99.90;;;;;;5055370;28;19954;-82
2023/02/12 11:35:57;;;;;;;;;;;14.90;99.90;;;;;;5055415;28;20362;-82
2023/02/12 11:38:24;;;;;;;;;;;15.00;99.90;;;;;;5037329;28;19909;-82
2023/02/12 11:40:52;;;;;;;;;;;15.00;99.90;;;;;;5037086;28;19909;-82
2023/02/12 11:43:18;;;;;;;;;;;14.90;99.90;;;;;;5037071;28;19913;-82
2023/02/12 11:45:46;;;;;;;;;;;14.90;99.90;;;;;;5057938;28;20012;-82
2023/02/12 11:48:20;;;;;;;;;;;15.00;99.90;;;;;;5040475;28;19959;-82
2023/02/12 11:50:47;;;;;;;;;;;14.90;99.90;;;;;;5044069;28;19909;-82
2023/02/12 11:53:19;;;;;;;;;;;15.00;99.90;;;;;;5042721;28;19909;-82
2023/02/12 11:55:51;;;;;;;;;;;15.10;99.90;;;;;;5041668;28;19916;-82
2023/02/12 11:58:20;;;;;;;;;;;15.10;99.90;;;;;;5039234;28;19956;-82
2023/02/12 12:00:50;;;;;;;;;;;15.00;99.90;;;;;;5057233;28;20353;-82
2023/02/12 12:03:19;;;;;;;;;;;15.00;99.90;;;;;;5039041;28;19909;-82
2023/02/12 12:05:47;;;;;;;;;;;14.90;99.90;;;;;;5038435;28;19912;-82
2023/02/12 12:08:27;;;;;;;;;;;14.90;99.90;;;;;;5038678;28;20282;-82
2023/02/12 12:10:55;;;;;;;;;;;14.70;99.90;;;;;;5038712;28;19909;-82
2023/02/12 12:13:26;;;;;;;;;;;14.70;99.90;;;;;;5038514;28;20358;-82
2023/02/12 12:22:01;;;;;;;;;;;14.90;99.90;;;;;;5056013;28;20007;-82
2023/02/12 12:24:45;;;;;;;;;;;14.90;99.90;;;;;;5037867;28;19913;-82
2023/02/12 12:28:01;;;;;;;;;;;15.00;99.90;;;;;;5037558;28;20047;-82
2023/02/12 12:30:05;;;;;;;;;;;15.10;99.90;;;;;;5055496;28;19915;-82
2023/02/12 12:32:32;;;;;;;;;;;15.00;99.90;;;;;;5037508;28;20440;-81
2023/02/12 12:34:58;;;;;;;;;;;15.00;99.90;;;;;;5037633;28;19909;-82
2023/02/12 12:37:33;;;;;;;;;;;15.00;99.90;;;;;;5034076;28;20025;-82
2023/02/12 12:40:08;;;;;;;;;;;15.00;99.90;;;;;;5022614;28;20310;-82
2023/02/12 12:42:54;;;;;;;;;;;15.10;99.90;;;;;;5007084;28;20302;-82
2023/02/12 12:45:29;;;;;;;;;;;15.20;99.90;;;;;;5035058;28;19977;-82
2023/02/12 12:48:05;;;;;;;;;;;15.20;99.90;;;;;;5033969;28;19909;-82
2023/02/12 12:50:39;;;;;;;;;;;15.20;99.90;;;;;;5035141;28;19909;-82
2023/02/12 12:53:17;;;;;;;;;;;15.30;99.90;;;;;;5035557;28;19940;-82
2023/02/12 12:55:52;;;;;;;;;;;15.30;99.90;;;;;;5034029;28;19909;-82
2023/02/12 12:58:30;;;;;;;;;;;15.40;99.90;;;;;;5034819;28;20317;-82
2023/02/12 13:01:14;;;;;;;;;;;15.40;99.90;;;;;;5030117;28;19916;-82
2023/02/12 13:03:40;;;;;;;;;;;15.50;99.90;;;;;;5025066;28;20444;-82
2023/02/12 13:06:05;;;;;;;;;;;15.40;99.90;;;;;;5034321;28;19913;-81
2023/02/12 13:08:49;;;;;;;;;;;15.50;99.90;;;;;;5017192;28;19917;-81
2023/02/12 13:11:20;;;;;;;;;;;15.50;99.90;;;;;;5034873;28;19910;-80
2023/02/12 13:13:48;;;;;;;;;;;15.50;99.90;;;;;;5017188;28;20004;-82
2023/02/12 13:16:22;;;;;;;;;;;15.50;99.90;;;;;;5034982;28;19917;-82
2023/02/12 13:18:51;;;;;;;;;;;15.50;99.90;;;;;;5015883;28;20354;-81
2023/02/12 13:21:31;;;;;;;;;;;15.60;99.90;;;;;;5035313;28;20341;-81
2023/02/12 13:24:06;;;;;;;;;;;15.60;99.90;;;;;;5035144;28;19913;-81
2023/02/12 13:26:49;;;;;;;;;;;15.50;99.90;;;;;;5016639;28;19960;-81
2023/02/12 13:29:23;;;;;;;;;;;15.50;99.90;;;;;;4997439;28;19916;-81
2023/02/12 13:32:00;;;;;;;;;;;15.50;99.90;;;;;;5014727;28;19933;-81
2023/02/12 13:34:28;;;;;;;;;;;15.50;99.90;;;;;;4997789;28;19910;-81
2023/02/12 13:36:54;;;;;;;;;;;15.50;99.90;;;;;;4997564;28;19909;-81
2023/02/12 13:39:36;;;;;;;;;;;15.50;99.90;;;;;;5015193;28;20000;-81
2023/02/12 13:42:20;;;;;;;;;;;15.50;99.90;;;;;;4997431;28;19909;-80
2023/02/12 13:45:04;;;;;;;;;;;15.50;99.90;;;;;;4997029;28;19917;-81
2023/02/12 13:47:35;;;;;;;;;;;15.50;99.90;;;;;;4997336;28;19917;-79
2023/02/12 13:50:19;;;;;;;;;;;15.50;99.90;;;;;;5015068;28;19916;-82
2023/02/12 13:52:48;;;;;;;;;;;15.50;99.90;;;;;;4996505;28;20379;-82
2023/02/12 13:55:13;;;;;;;;;;;15.50;99.90;;;;;;4996587;28;19920;-82
2023/02/12 13:57:39;;;;;;;;;;;15.50;99.90;;;;;;4998381;28;19909;-79
2023/02/12 14:00:08;;;;;;;;;;;15.50;99.90;;;;;;5015646;28;19910;-79
2023/02/12 14:02:35;;;;;;;;;;;15.50;99.90;;;;;;4997643;28;19910;-79
2023/02/12 14:35:31;;;;;;;;;;;14.60;99.90;;;;;;4993866;28;20382;-80
2023/02/12 14:38:01;;;;;;;;;;;14.50;99.90;;;;;;5020182;28;19932;-80
2023/02/12 14:40:43;;;;;;;;;;;14.50;99.90;;;;;;5036246;28;19963;-79
2023/02/12 14:55:33;;;;;;;;;;;14.10;99.90;;;;;;4982335;28;19933;-81
2023/02/12 14:58:39;;;;;;;;;;;;;;;;;;;;;
2023/02/12 15:01:05;;;;;;;;;;;14.00;99.90;;;;;;5014677;28;19920;-79
2023/02/12 15:03:37;;;;;;;;;;;14.00;99.90;;;;;;5025939;28;19996;-80
2023/02/12 15:06:06;;;;;;;;;;;14.00;99.90;;;;;;5057056;28;19913;-80
2023/02/12 15:08:50;;;;;;;;;;;;;;;;;;;;;
2023/02/12 15:14:38;;;;;;;;;;;13.80;99.90;;;;;;5056839;28;19920;-85
2023/02/12 15:20:49;;;;;;;;;;;13.70;99.90;;;;;;4992408;28;19917;-80
2023/02/12 15:23:41;;;;;;;;;;;13.60;99.90;;;;;;4977854;28;19909;-79
2023/02/12 15:26:21;;;;;;;;;;;13.60;99.90;;;;;;4995419;28;20326;-83
2023/02/12 15:28:48;;;;;;;;;;;13.60;99.90;;;;;;5044322;28;20388;-82
2023/02/12 15:31:15;;;;;;;;;;;13.50;99.90;;;;;;5038137;28;19909;-81
2023/02/12 15:33:44;;;;;;;;;;;13.50;99.90;;;;;;5037954;28;20324;-84
2023/02/12 15:36:14;;;;;;;;;;;13.50;99.90;;;;;;5039206;28;20256;-83
2023/02/12 15:38:40;;;;;;;;;;;13.40;99.90;;;;;;5039483;28;19909;-81
2023/02/12 15:41:06;;;;;;;;;;;13.40;99.90;;;;;;5039705;28;20450;-82
2023/02/12 15:43:35;;;;;;;;;;;13.40;99.90;;;;;;5041395;28;20366;-82